createdAt,value
2022-10-25T00:04:28.539Z,100479.06
2022-10-25T00:09:30.172Z,100483.47
2022-10-25T00:14:31.830Z,100482.66
2022-10-25T00:19:33.493Z,100485.34
2022-10-25T00:24:35.118Z,100487.13
2022-10-25T00:29:36.849Z,100493.25
2022-10-25T00:34:40.537Z,100494.13
2022-10-25T00:39:43.411Z,100487.16
2022-10-25T00:44:50.534Z,100498.53
2022-10-25T00:49:58.161Z,100497.63
2022-10-25T00:54:59.777Z,100492.38
2022-10-25T01:00:02.005Z,100480.13
2022-10-25T01:05:03.790Z,100495.00
2022-10-25T01:10:05.644Z,100494.97
2022-10-25T01:15:07.717Z,100495.00
2022-10-25T01:20:24.537Z,100493.25
2022-10-25T01:25:44.923Z,100496.72
2022-10-25T01:31:08.373Z,100500.22
2022-10-25T01:41:30.221Z,100503.66
2022-10-25T01:46:46.040Z,100503.63
2022-10-25T01:51:47.694Z,100504.44
2022-10-25T01:56:56.684Z,100508.81
2022-10-25T02:02:03.219Z,100512.31
2022-10-25T02:07:09.634Z,100507.88
2022-10-25T02:12:14.939Z,100510.53
2022-10-25T02:17:18.881Z,100503.50
2022-10-25T02:22:22.351Z,100510.50
2022-10-25T02:27:23.989Z,100508.72
2022-10-25T02:32:25.643Z,100513.91
2022-10-25T02:37:27.284Z,100517.38
2022-10-25T02:42:28.896Z,100522.63
2022-10-25T02:47:30.540Z,100527.00
2022-10-25T02:52:32.242Z,100528.78
2022-10-25T02:57:34.609Z,100525.31
2022-10-25T03:02:36.250Z,100526.22
2022-10-25T03:07:37.962Z,100519.25
2022-10-25T03:12:39.613Z,100519.25
2022-10-25T03:17:41.286Z,100524.53
2022-10-25T03:22:42.939Z,100528.06
2022-10-25T03:27:44.846Z,100532.47
2022-10-25T03:32:46.645Z,100530.75
2022-10-25T03:37:49.243Z,100542.13
2022-10-25T03:42:51.043Z,100540.41
2022-10-25T03:47:52.684Z,100546.50
2022-10-25T03:52:54.346Z,100546.50
2022-10-25T03:57:56.023Z,100551.75
2022-10-25T04:03:01.865Z,100556.97
2022-10-25T04:08:04.574Z,100556.97
2022-10-25T04:13:06.265Z,100569.16
2022-10-25T04:18:07.922Z,100566.53
2022-10-25T04:23:09.570Z,100567.44
2022-10-25T04:28:11.215Z,100560.44
2022-10-25T04:33:12.885Z,100563.06
2022-10-25T04:38:14.501Z,100572.66
2022-10-25T04:43:16.120Z,100578.78
2022-10-25T04:48:17.862Z,100579.72
2022-10-25T04:53:19.518Z,100574.47
2022-10-25T04:58:21.159Z,100577.97
2022-10-25T05:03:22.866Z,100584.97
2022-10-25T05:08:24.521Z,100588.47
2022-10-25T05:13:26.158Z,100583.19
2022-10-25T05:18:27.893Z,100595.41
2022-10-25T05:23:29.876Z,100591.06
2022-10-25T05:28:31.980Z,100596.28
2022-10-25T05:33:33.696Z,100601.50
2022-10-25T05:38:37.737Z,100605.03
2022-10-25T05:43:39.836Z,100616.31
2022-10-25T05:48:45.780Z,100621.56
2022-10-25T05:53:51.304Z,100624.19
2022-10-25T05:58:52.969Z,100630.31
2022-10-25T06:03:55.058Z,100627.63
2022-10-25T06:09:00.309Z,100633.72
2022-10-25T06:14:02.013Z,100643.38
2022-10-25T06:19:03.709Z,100659.09
2022-10-25T06:24:05.659Z,100652.97
2022-10-25T06:29:07.365Z,100660.84
2022-10-25T06:34:09.061Z,100663.50
2022-10-25T06:39:10.669Z,100673.94
2022-10-25T06:44:12.352Z,100676.59
2022-10-25T06:49:13.985Z,100682.72
2022-10-25T06:54:15.636Z,100690.53
2022-10-25T06:59:17.859Z,100700.16
2022-10-25T07:04:19.614Z,100708.94
2022-10-25T07:09:21.292Z,100705.47
2022-10-25T07:14:22.995Z,100713.34
2022-10-25T07:19:24.960Z,100714.22
2022-10-25T07:24:26.610Z,100709.81
2022-10-25T07:29:28.258Z,100712.44
2022-10-25T07:34:29.972Z,100724.66
2022-10-25T07:39:31.589Z,100728.16
2022-10-25T07:44:33.501Z,100724.63
2022-10-25T07:49:36.604Z,100730.78
2022-10-25T07:54:38.330Z,100735.97
2022-10-25T07:59:39.997Z,100735.94
2022-10-25T08:04:41.986Z,100754.25
2022-10-25T08:09:43.621Z,100750.75
2022-10-25T08:14:47.476Z,100755.94
2022-10-25T08:19:51.519Z,100769.91
2022-10-25T08:24:53.678Z,100769.88
2022-10-25T08:29:55.309Z,100771.63
2022-10-25T08:34:56.960Z,100771.56
2022-10-25T08:39:58.611Z,100776.81
2022-10-25T08:45:13.395Z,100789.00
2022-10-25T08:50:39.849Z,100788.09
2022-10-25T08:55:58.677Z,100792.44
2022-10-25T09:01:13.517Z,100801.03
2022-10-25T09:06:21.098Z,100808.84
2022-10-25T09:11:44.713Z,100814.00
2022-10-25T09:16:53.504Z,100810.41
2022-10-25T09:22:01.736Z,100808.59
2022-10-25T09:27:07.830Z,100814.72
2022-10-25T09:32:19.458Z,100819.91
2022-10-25T09:37:25.505Z,100822.56
2022-10-25T09:42:37.183Z,100837.31
2022-10-25T09:47:56.006Z,100842.59
2022-10-25T09:53:11.838Z,100846.13
2022-10-25T09:58:23.314Z,100843.50
2022-10-25T10:03:29.183Z,100839.09
2022-10-25T10:08:32.433Z,100845.25
2022-10-25T10:13:46.779Z,100848.72
2022-10-25T10:18:48.792Z,100849.50
2022-10-25T10:23:54.333Z,100854.72
2022-10-25T10:29:17.566Z,100844.94
2022-10-25T10:34:23.563Z,100861.53
2022-10-25T10:39:25.195Z,100864.16
2022-10-25T10:44:26.870Z,100865.00
2022-10-25T10:49:37.713Z,100872.00
2022-10-25T10:54:46.246Z,100868.47
2022-10-25T10:59:55.733Z,100874.56
2022-10-25T11:04:57.984Z,100877.97
2022-10-25T11:10:18.863Z,100883.25
2022-10-25T11:15:20.493Z,100885.97
2022-10-25T11:20:37.307Z,100897.16
2022-10-25T11:25:44.181Z,100904.16
2022-10-25T11:30:57.843Z,100914.69
2022-10-25T11:36:27.189Z,100923.59
2022-10-25T11:41:51.516Z,100921.69
2022-10-25T11:47:20.867Z,100933.84
2022-10-25T11:52:54.644Z,100916.28
2022-10-25T11:58:36.156Z,100921.53
2022-10-25T12:03:55.888Z,100907.28
2022-10-25T12:09:07.066Z,100919.91
2022-10-25T12:14:12.181Z,100920.22
2022-10-25T12:19:24.183Z,100933.34
2022-10-25T12:24:45.659Z,100930.81
2022-10-25T12:29:50.542Z,100945.72
2022-10-25T12:34:53.492Z,100927.28
2022-10-25T12:39:55.123Z,100937.81
2022-10-25T12:45:32.612Z,100947.41
2022-10-25T12:50:54.362Z,100944.81
2022-10-25T12:56:03.465Z,100939.41
2022-10-25T13:01:39.901Z,100947.38
2022-10-25T13:06:48.053Z,100950.03
2022-10-25T13:11:58.622Z,100939.34
2022-10-25T13:17:16.730Z,100954.13
2022-10-25T13:22:39.087Z,100929.31
2022-10-25T13:28:15.880Z,100928.03
2022-10-25T13:33:22.524Z,100939.25
2022-10-25T13:38:28.054Z,100946.03
2022-10-25T13:43:29.855Z,100938.75
2022-10-25T13:48:35.110Z,100935.31
2022-10-25T13:53:50.560Z,100945.13
2022-10-25T13:58:53.056Z,100951.56
2022-10-25T14:04:06.121Z,100958.72
2022-10-25T14:09:32.676Z,100959.47
2022-10-25T14:14:57.905Z,100952.56
2022-10-25T14:20:07.747Z,100959.91
2022-10-25T14:25:35.597Z,100961.81
2022-10-25T14:30:42.225Z,100954.06
2022-10-25T14:35:48.605Z,100956.72
2022-10-25T14:41:01.695Z,100958.63
2022-10-25T14:46:06.299Z,100954.22
2022-10-25T14:51:22.846Z,100956.97
2022-10-25T14:56:36.140Z,100964.06
2022-10-25T15:01:37.885Z,100966.78
2022-10-25T15:06:39.611Z,100964.22
2022-10-25T15:11:41.261Z,100963.47
2022-10-25T15:16:44.038Z,100960.78
2022-10-25T15:21:52.489Z,100966.09
2022-10-25T15:26:53.979Z,100961.78
2022-10-25T15:31:55.633Z,100961.91
2022-10-25T15:36:57.423Z,100963.78
2022-10-25T15:41:59.094Z,100967.41
2022-10-25T15:47:00.849Z,100970.13
2022-10-25T15:52:02.486Z,100972.84
2022-10-25T15:57:04.217Z,100974.69
2022-10-25T16:02:17.841Z,100967.78
2022-10-25T16:07:19.512Z,100974.00
2022-10-25T16:12:24.361Z,100969.66
2022-10-25T16:17:25.988Z,100978.50
2022-10-25T16:22:27.649Z,100984.69
2022-10-25T16:27:29.286Z,100994.38
2022-10-25T16:32:30.938Z,100997.03
2022-10-25T16:37:32.851Z,101003.22
2022-10-25T16:42:35.609Z,101002.38
2022-10-25T16:47:37.339Z,101003.31
2022-10-25T16:52:39.005Z,101005.09
2022-10-25T16:57:40.754Z,101010.34
2022-10-25T17:02:42.535Z,101007.75
2022-10-25T17:07:45.730Z,101006.03
2022-10-25T17:12:49.355Z,101010.44
2022-10-25T17:17:51.454Z,101003.41
2022-10-25T17:22:54.529Z,101013.94
2022-10-25T17:27:56.201Z,101007.78
2022-10-25T17:32:57.845Z,101014.75
2022-10-25T17:37:59.544Z,101017.34
2022-10-25T17:43:01.290Z,101009.50
2022-10-25T17:48:04.023Z,101006.00
2022-10-25T17:53:05.671Z,101009.50
2022-10-25T17:58:07.341Z,101015.59
2022-10-25T18:03:09.073Z,101022.53
2022-10-25T18:08:10.766Z,101023.41
2022-10-25T18:13:12.436Z,101020.78
2022-10-25T18:18:14.097Z,101035.59
2022-10-25T18:23:16.214Z,101036.47
2022-10-25T18:28:17.853Z,101025.09
2022-10-25T18:33:23.692Z,101032.06
2022-10-25T18:38:25.328Z,101039.06
2022-10-25T18:43:27.086Z,101036.44
2022-10-25T18:48:28.767Z,101039.91
2022-10-25T18:53:31.766Z,101036.41
2022-10-25T18:58:33.436Z,101031.13
2022-10-25T19:03:35.170Z,101037.19
2022-10-25T19:08:36.961Z,101031.94
2022-10-25T19:13:38.994Z,101033.63
2022-10-25T19:18:40.780Z,101031.84
2022-10-25T19:23:44.572Z,101042.25
2022-10-25T19:28:46.425Z,101030.84
2022-10-25T19:33:48.668Z,101031.69
2022-10-25T19:38:50.360Z,101032.56
2022-10-25T19:43:52.267Z,101036.91
2022-10-25T19:48:56.093Z,101036.03
2022-10-25T19:53:57.856Z,101043.88
2022-10-25T19:58:59.543Z,101041.28
2022-10-25T20:04:01.309Z,101040.41
2022-10-25T20:09:03.039Z,101040.41
2022-10-25T20:14:04.725Z,101044.72
2022-10-25T20:19:06.398Z,101040.31
2022-10-25T20:24:08.797Z,101043.75
2022-10-25T20:29:17.133Z,101036.66
2022-10-25T20:34:22.087Z,101049.63
2022-10-25T20:39:23.723Z,101052.94
2022-10-25T20:44:25.392Z,101064.19
2022-10-25T20:49:27.107Z,101061.44
2022-10-25T20:54:28.799Z,101074.44
2022-10-25T20:59:30.496Z,101070.81
2022-10-25T21:09:53.775Z,101069.78
2022-10-25T21:14:55.463Z,101068.84
2022-10-25T21:19:57.139Z,101065.22
2022-10-25T21:24:58.872Z,101066.88
2022-10-25T21:30:00.492Z,101076.44
2022-10-25T21:35:02.138Z,101079.72
2022-10-25T21:40:04.691Z,101080.50
2022-10-25T21:45:06.818Z,101085.63
2022-10-25T21:50:09.240Z,101077.69
2022-10-25T21:55:10.910Z,101076.72
2022-10-25T22:00:12.766Z,101083.59
2022-10-25T22:05:17.318Z,101080.00
2022-10-25T22:10:18.981Z,101076.41
2022-10-25T22:15:20.766Z,101088.50
2022-10-25T22:20:22.445Z,101088.41
2022-10-25T22:25:24.190Z,101083.16
2022-10-25T22:30:25.858Z,101079.63
2022-10-25T22:35:27.531Z,101073.53
2022-10-25T22:40:29.195Z,101078.72
2022-10-25T22:45:30.881Z,101083.06
2022-10-25T22:50:32.534Z,101081.31
2022-10-25T22:55:34.208Z,101076.03
2022-10-25T23:00:35.846Z,101069.84
2022-10-25T23:05:37.469Z,101068.09
2022-10-25T23:10:39.149Z,101074.97
2022-10-25T23:15:40.830Z,101067.91
2022-10-25T23:21:01.637Z,101073.84
2022-10-25T23:26:03.279Z,101072.00
2022-10-25T23:31:05.943Z,101072.78
2022-10-25T23:36:10.596Z,101063.22
2022-10-25T23:41:12.582Z,101064.88
2022-10-25T23:46:14.231Z,101064.84
2022-10-25T23:51:17.257Z,101063.81
2022-10-25T23:56:18.912Z,101066.34
